CYUL - Montreal / Pierre Elliott Trudeau International Airport

Pirep is a free, collaborative database of all public and private airports located within the United States. All pilots are welcome to contribute, edit, and improve any airport they have local knowledge about, no registration required.
Are you familiar with this airport? Help out other pilots by adding your local knowledge.
Uploaded photos will be licensed under a CC BY-SA 4.0 license. Please only upload photos you have the rights to use.
Tags
Public
Undocu­mented
METAR / TAF
Edit Tags
Food
Camping
Lodging
Car Rental
Bicycles
Swimming
Golfing
Fishing
Hot Springs
Museum
Flying Clubs
Airpark
Upcoming Events
No upcoming events. Is anything happening here soon?
*
*
*

Where exactly on/near the airport is this event taking place?

Is there a webpage with more information for this event?

Who should be contacted for more information?

What is this event all about?

Repeat every
Description
Transient Parking
Fuel Location
Landing & Tie-down Fees
Crew Car Availability
Flying Clubs
WiFi Access
Airport Statistics
Location: Montréal, Quebec
Elevation: 118ft
Runway 06L/24R: 11,000ft
Runway 06R/24L: 9,600ft
Runway 10/28: 7,000ft
Warning: This airport was imported from a non-authoritative source. It's public/private status may not be accurate.
Access: Open to the public
Current Weather — MVFR
  • Weather data is strictly informational and not for flight planning purposes.
  • METAR
    2024-04-24 09:28:00 EDT
    Ceiling Wind Temperature Dewpoint Weather Visbility
    1,400ft 10° @ 22kt, gusts 30kt 41°F 39°F Rain 7SM
    Clouds: Few @ 600ft, Broken @ 1,400ft, Overcast @ 2,500ft
    Raw: CYUL 241328Z 01022G30KT 7SM RA FEW006 BKN014 OVC025 05/04 A2974 RMK SF2SC5SC1 PRESRR SLP074
  • TAF
    2024-04-24 09:00:00 EDT – 2024-04-24 11:00:00 EDT
    Ceiling Wind Weather Visbility
    900ft 350° @ 15kt, gusts 25kt Light rain, mist 5SM
    Clouds: Broken @ 900ft, Overcast @ 2,000ft
    Raw: TAF AMD CYUL 241318Z 2413/2512 35015G25KT 5SM -RA BR BKN009 OVC020 TEMPO 2413/2415 P6SM -RA SCT009 OVC025 FM241500 35012G22KT P6SM -SHRA OVC030 TEMPO 2415/2418 BKN020 FM241800 35012G22KT P6SM BKN030 BKN070 FM242100 35012G22KT P6SM FEW070 FM250000 35007KT P6SM SKC RMK NXT FCST BY 241500Z
  • TAF
    2024-04-24 09:00:00 EDT – 2024-04-24 11:00:00 EDT
    Ceiling Wind Weather Visbility
    2,500ft ° @ kt Light rain 6SM
    Clouds: Scattered @ 900ft, Overcast @ 2,500ft
    Raw: TAF AMD CYUL 241318Z 2413/2512 35015G25KT 5SM -RA BR BKN009 OVC020 TEMPO 2413/2415 P6SM -RA SCT009 OVC025 FM241500 35012G22KT P6SM -SHRA OVC030 TEMPO 2415/2418 BKN020 FM241800 35012G22KT P6SM BKN030 BKN070 FM242100 35012G22KT P6SM FEW070 FM250000 35007KT P6SM SKC RMK NXT FCST BY 241500Z
  • TAF
    2024-04-24 11:00:00 EDT – 2024-04-24 14:00:00 EDT
    Ceiling Wind Weather Visbility
    3,000ft 350° @ 12kt, gusts 22kt Light rain showers 6SM
    Clouds: Overcast @ 3,000ft
    Raw: TAF AMD CYUL 241318Z 2413/2512 35015G25KT 5SM -RA BR BKN009 OVC020 TEMPO 2413/2415 P6SM -RA SCT009 OVC025 FM241500 35012G22KT P6SM -SHRA OVC030 TEMPO 2415/2418 BKN020 FM241800 35012G22KT P6SM BKN030 BKN070 FM242100 35012G22KT P6SM FEW070 FM250000 35007KT P6SM SKC RMK NXT FCST BY 241500Z
  • TAF
    2024-04-24 11:00:00 EDT – 2024-04-24 14:00:00 EDT
    Ceiling Wind Weather Visbility
    2,000ft ° @ kt N/A SM
    Clouds: Broken @ 2,000ft
    Raw: TAF AMD CYUL 241318Z 2413/2512 35015G25KT 5SM -RA BR BKN009 OVC020 TEMPO 2413/2415 P6SM -RA SCT009 OVC025 FM241500 35012G22KT P6SM -SHRA OVC030 TEMPO 2415/2418 BKN020 FM241800 35012G22KT P6SM BKN030 BKN070 FM242100 35012G22KT P6SM FEW070 FM250000 35007KT P6SM SKC RMK NXT FCST BY 241500Z
  • TAF
    2024-04-24 14:00:00 EDT – 2024-04-24 17:00:00 EDT
    Ceiling Wind Weather Visbility
    3,000ft 350° @ 12kt, gusts 22kt N/A 6SM
    Clouds: Broken @ 3,000ft, Broken @ 7,000ft
    Raw: TAF AMD CYUL 241318Z 2413/2512 35015G25KT 5SM -RA BR BKN009 OVC020 TEMPO 2413/2415 P6SM -RA SCT009 OVC025 FM241500 35012G22KT P6SM -SHRA OVC030 TEMPO 2415/2418 BKN020 FM241800 35012G22KT P6SM BKN030 BKN070 FM242100 35012G22KT P6SM FEW070 FM250000 35007KT P6SM SKC RMK NXT FCST BY 241500Z
  • TAF
    2024-04-24 17:00:00 EDT – 2024-04-24 20:00:00 EDT
    Ceiling Wind Weather Visbility
    Sky clear 350° @ 12kt, gusts 22kt N/A 6SM
    Clouds: Few @ 7,000ft
    Raw: TAF AMD CYUL 241318Z 2413/2512 35015G25KT 5SM -RA BR BKN009 OVC020 TEMPO 2413/2415 P6SM -RA SCT009 OVC025 FM241500 35012G22KT P6SM -SHRA OVC030 TEMPO 2415/2418 BKN020 FM241800 35012G22KT P6SM BKN030 BKN070 FM242100 35012G22KT P6SM FEW070 FM250000 35007KT P6SM SKC RMK NXT FCST BY 241500Z
  • TAF
    2024-04-24 20:00:00 EDT – 2024-04-25 08:00:00 EDT
    Ceiling Wind Weather Visbility
    Sky clear 350° @ 7kt N/A 6SM
    Clouds: @ ft
    Raw: TAF AMD CYUL 241318Z 2413/2512 35015G25KT 5SM -RA BR BKN009 OVC020 TEMPO 2413/2415 P6SM -RA SCT009 OVC025 FM241500 35012G22KT P6SM -SHRA OVC030 TEMPO 2415/2418 BKN020 FM241800 35012G22KT P6SM BKN030 BKN070 FM242100 35012G22KT P6SM FEW070 FM250000 35007KT P6SM SKC RMK NXT FCST BY 241500Z
Click/tap to add an annotation marker to the map
Airport Webcams
No webcams added yet.
Direct links to live image URLs will be displayed inline on this page. URLs to separate webpages will be linked to.
URL:
Direct links to live image URLs will be displayed inline on this page. URLs to separate webpages will be linked to.
URL:
Comments
Leave a comment What was your experience like at this airport?